createdAt,value
2019-06-10T00:02:50.805Z,13.88
2019-06-10T00:07:56.218Z,15.93
2019-06-10T00:13:07.318Z,15.58
2019-06-10T00:18:34.039Z,13.48
2019-06-10T00:23:21.228Z,13.78
2019-06-10T00:28:27.921Z,13.93
2019-06-10T00:33:33.091Z,13.90
2019-06-10T00:38:41.037Z,14.75
2019-06-10T00:43:45.277Z,14.20
2019-06-10T00:48:52.335Z,14.87
2019-06-10T00:53:57.387Z,13.62
2019-06-10T00:59:04.098Z,14.33
2019-06-10T01:04:12.415Z,14.10
2019-06-10T01:09:16.137Z,14.15
2019-06-10T01:14:21.714Z,15.23
2019-06-10T01:19:26.887Z,14.47
2019-06-10T01:24:31.977Z,13.88
2019-06-10T01:29:37.065Z,15.05
2019-06-10T01:34:42.109Z,16.82
2019-06-10T01:39:47.323Z,14.98
2019-06-10T01:44:52.451Z,14.00
2019-06-10T01:49:57.573Z,15.72
2019-06-10T01:55:02.690Z,19.52
2019-06-10T02:00:11.942Z,15.30
2019-06-10T02:05:16.669Z,13.18
2019-06-10T02:10:23.126Z,16.52
2019-06-10T02:15:28.392Z,16.17
2019-06-10T02:20:33.659Z,14.50
2019-06-10T02:25:41.065Z,17.05
2019-06-10T02:30:51.876Z,18.67
2019-06-10T02:35:53.866Z,18.15
2019-06-10T02:40:59.291Z,20.12
2019-06-10T02:46:04.930Z,18.20
2019-06-10T02:51:13.083Z,21.45
2019-06-10T02:56:17.775Z,18.17
2019-06-10T03:01:31.882Z,18.75
2019-06-10T03:06:36.257Z,19.05
2019-06-10T03:11:37.787Z,18.30
2019-06-10T03:16:49.691Z,19.20
2019-06-10T03:21:54.773Z,17.90
2019-06-10T03:26:59.874Z,17.37
2019-06-10T03:32:05.733Z,17.90
2019-06-10T03:37:12.906Z,18.57
2019-06-10T03:42:18.775Z,20.97
2019-06-10T03:47:25.904Z,25.08
2019-06-10T03:52:32.449Z,22.70
2019-06-10T03:57:37.720Z,20.05
2019-06-10T04:02:43.216Z,14.90
2019-06-10T04:07:48.240Z,18.90
2019-06-10T04:12:53.316Z,17.70
2019-06-10T04:17:58.414Z,18.52
2019-06-10T04:23:04.330Z,19.95
2019-06-10T04:28:09.522Z,19.32
2019-06-10T04:33:14.596Z,23.15
2019-06-10T04:38:20.956Z,21.23
2019-06-10T04:43:27.730Z,22.00
2019-06-10T04:48:34.058Z,16.95
2019-06-10T04:53:40.474Z,17.60
2019-06-10T04:58:46.031Z,16.95
2019-06-10T05:03:52.661Z,14.73
2019-06-10T05:08:57.849Z,18.80
2019-06-10T05:14:03.030Z,15.93
2019-06-10T05:19:09.242Z,17.35
2019-06-10T05:24:14.343Z,15.48
2019-06-10T05:29:20.267Z,15.28
2019-06-10T05:34:27.196Z,18.75
2019-06-10T05:39:35.131Z,17.48
2019-06-10T05:44:40.087Z,17.98
2019-06-10T05:49:45.177Z,18.10
2019-06-10T05:54:52.132Z,17.87
2019-06-10T05:59:57.763Z,18.23
2019-06-10T06:05:02.888Z,18.57
2019-06-10T06:10:08.601Z,20.68
2019-06-10T06:15:13.832Z,21.57
2019-06-10T06:20:19.230Z,22.95
2019-06-10T06:25:24.339Z,21.60
2019-06-10T06:30:30.182Z,23.80
2019-06-10T06:35:40.898Z,20.37
2019-06-10T06:40:43.606Z,20.90
2019-06-10T06:45:48.742Z,17.77
2019-06-10T06:51:04.586Z,18.50
2019-06-10T06:56:03.453Z,18.32
2019-06-10T07:01:10.955Z,18.67
2019-06-10T07:06:15.580Z,18.98
2019-06-10T07:11:22.404Z,23.38
2019-06-10T07:16:27.738Z,17.40
2019-06-10T07:21:36.188Z,16.52
2019-06-10T07:26:45.330Z,17.92
2019-06-10T07:31:50.119Z,17.55
2019-06-10T07:36:55.427Z,18.90
2019-06-10T07:42:03.026Z,22.13
2019-06-10T07:47:09.094Z,18.85
2019-06-10T07:52:19.407Z,21.60
2019-06-10T07:57:22.628Z,18.37
2019-06-10T08:02:27.866Z,13.88
2019-06-10T08:07:33.877Z,13.45
2019-06-10T08:12:41.829Z,12.53
2019-06-10T08:17:48.250Z,14.70
2019-06-10T08:22:57.858Z,19.65
2019-06-10T08:28:02.974Z,21.07
2019-06-10T08:33:09.580Z,17.10
2019-06-10T08:38:14.654Z,17.77
2019-06-10T08:43:22.444Z,15.38
2019-06-10T08:48:27.239Z,15.13
2019-06-10T08:53:32.953Z,14.10
2019-06-10T08:58:40.311Z,15.83
2019-06-10T09:03:49.007Z,14.78
2019-06-10T09:08:54.543Z,17.65
2019-06-10T09:14:02.385Z,16.85
2019-06-10T09:19:07.898Z,15.08
2019-06-10T09:24:13.065Z,21.52
2019-06-10T09:29:18.333Z,14.78
2019-06-10T09:34:23.909Z,18.00
2019-06-10T09:39:29.201Z,17.40
2019-06-10T09:44:34.287Z,18.92
2019-06-10T09:49:42.382Z,18.60
2019-06-10T09:54:50.840Z,14.75
2019-06-10T09:59:56.580Z,17.55
2019-06-10T10:05:08.788Z,19.42
2019-06-10T10:10:15.585Z,16.45
2019-06-10T10:15:29.887Z,18.90
2019-06-10T10:20:28.468Z,20.60
2019-06-10T10:25:33.635Z,17.95
2019-06-10T10:30:42.498Z,18.07
2019-06-10T10:35:48.037Z,18.17
2019-06-10T10:40:58.582Z,16.00
2019-06-10T10:46:06.353Z,16.40
2019-06-10T10:51:13.342Z,18.17
2019-06-10T10:56:18.786Z,15.23
2019-06-10T11:01:24.214Z,17.92
2019-06-10T11:06:29.386Z,17.00
2019-06-10T11:11:34.596Z,16.90
2019-06-10T11:16:39.800Z,16.20
2019-06-10T11:21:45.315Z,16.93
2019-06-10T11:26:53.257Z,20.08
2019-06-10T11:31:58.663Z,22.60
2019-06-10T11:37:04.331Z,18.30
2019-06-10T11:42:13.290Z,17.55
2019-06-10T11:47:18.527Z,16.52
2019-06-10T11:52:25.068Z,16.12
2019-06-10T11:57:32.943Z,18.17
2019-06-10T12:02:37.963Z,16.55
2019-06-10T12:07:43.614Z,17.77
2019-06-10T12:12:48.965Z,19.10
2019-06-10T12:18:00.815Z,17.50
2019-06-10T12:23:04.403Z,16.60
2019-06-10T12:28:08.328Z,16.27
2019-06-10T12:33:21.262Z,16.95
2019-06-10T12:38:22.752Z,19.75
2019-06-10T12:43:27.382Z,17.37
2019-06-10T12:48:34.355Z,16.75
2019-06-10T12:53:39.717Z,16.00
2019-06-10T12:58:44.992Z,22.58
2019-06-10T13:03:52.853Z,18.67
2019-06-10T13:08:58.061Z,20.12
2019-06-10T13:14:06.484Z,20.30
2019-06-10T13:19:12.380Z,20.45
2019-06-10T13:24:17.000Z,21.55
2019-06-10T13:34:27.905Z,21.60
2019-06-10T14:15:09.345Z,19.15
2019-06-10T14:20:15.475Z,18.05
2019-06-10T14:25:23.293Z,19.60
2019-06-10T14:30:29.011Z,21.97
2019-06-10T14:35:34.153Z,26.35
2019-06-10T14:40:39.298Z,26.93
2019-06-10T14:45:44.447Z,20.57
2019-06-10T15:46:43.047Z,23.07
2019-06-10T15:51:48.885Z,23.52
2019-06-10T15:56:56.567Z,21.95
2019-06-10T16:02:02.573Z,22.93
2019-06-10T16:07:09.093Z,28.92
2019-06-10T16:12:16.344Z,25.12
2019-06-10T16:17:21.162Z,22.32
2019-06-10T16:22:27.688Z,25.50
2019-06-10T16:27:46.285Z,27.02
2019-06-10T16:32:39.559Z,20.37
2019-06-10T16:37:44.719Z,22.77
2019-06-10T16:42:49.974Z,22.90
2019-06-10T16:47:55.700Z,21.73
2019-06-10T16:53:03.006Z,20.05
2019-06-10T16:58:08.527Z,19.10
2019-06-10T17:03:13.908Z,18.23
2019-06-10T17:08:20.059Z,18.75
2019-06-10T17:13:27.277Z,18.00
2019-06-10T17:18:33.915Z,20.32
2019-06-10T17:23:39.076Z,19.55
2019-06-10T17:28:44.628Z,18.77
2019-06-10T17:33:49.757Z,20.62
2019-06-10T17:38:54.941Z,22.27
2019-06-10T17:44:02.688Z,20.40
2019-06-10T17:49:08.953Z,17.10
2019-06-10T17:54:14.205Z,19.10
2019-06-10T17:59:22.477Z,18.48
2019-06-10T18:04:27.377Z,17.25
2019-06-10T18:09:35.419Z,19.00
2019-06-10T18:14:39.692Z,18.35
2019-06-10T18:19:44.848Z,22.13
2019-06-10T18:24:52.237Z,17.25
2019-06-10T18:29:58.489Z,19.25
2019-06-10T18:35:03.852Z,17.10
2019-06-10T18:40:09.431Z,21.82
2019-06-10T18:45:15.172Z,19.27
2019-06-10T18:50:22.110Z,17.92
2019-06-10T18:55:37.248Z,18.57
2019-06-10T19:00:56.970Z,16.45
2019-06-10T19:05:47.321Z,14.95
2019-06-10T19:10:53.563Z,15.95
2019-06-10T19:15:59.010Z,16.73
2019-06-10T19:21:07.705Z,16.00
2019-06-10T19:26:13.473Z,21.77
2019-06-10T19:31:18.392Z,20.48
2019-06-10T19:36:23.724Z,16.37
2019-06-10T19:41:28.816Z,14.03
2019-06-10T19:46:34.267Z,15.63
2019-06-10T19:51:44.852Z,18.25
2019-06-10T19:56:48.797Z,14.90
2019-06-10T20:01:54.292Z,14.58
2019-06-10T20:07:02.246Z,13.68
2019-06-10T20:12:07.161Z,16.17
2019-06-10T20:17:13.390Z,16.20
2019-06-10T20:22:19.483Z,15.83
2019-06-10T20:27:24.814Z,17.07
2019-06-10T20:32:29.944Z,17.17
2019-06-10T20:37:35.069Z,16.00
2019-06-10T20:42:40.287Z,16.82
2019-06-10T20:47:48.005Z,17.85
2019-06-10T20:52:52.559Z,17.23
2019-06-10T20:58:03.498Z,14.60
2019-06-10T21:03:05.015Z,15.38
2019-06-10T21:08:12.247Z,16.25
2019-06-10T21:13:17.044Z,15.00
2019-06-10T21:18:22.614Z,14.90
2019-06-10T21:23:27.937Z,15.63
2019-06-10T21:28:34.766Z,14.95
2019-06-10T21:33:43.791Z,15.93
2019-06-10T21:38:49.359Z,16.20
2019-06-10T21:43:59.103Z,15.98
2019-06-10T21:49:00.769Z,15.10
2019-06-10T21:54:07.384Z,16.62
2019-06-10T21:59:12.707Z,17.23
2019-06-10T22:04:19.238Z,15.75
2019-06-10T22:09:24.639Z,17.77
2019-06-10T22:14:30.124Z,17.42
2019-06-10T22:19:35.183Z,19.48
2019-06-10T22:24:42.327Z,19.57
2019-06-10T22:29:47.138Z,17.50
2019-06-10T22:34:54.164Z,18.00
2019-06-10T22:39:59.514Z,17.62
2019-06-10T22:45:05.255Z,18.90
2019-06-10T22:50:12.974Z,17.20
2019-06-10T22:55:18.022Z,19.25
2019-06-10T23:00:23.123Z,21.20
2019-06-10T23:05:28.634Z,20.80
2019-06-10T23:10:33.884Z,18.48
2019-06-10T23:15:42.656Z,19.60
2019-06-10T23:20:47.176Z,18.20
2019-06-10T23:25:52.279Z,19.35
2019-06-10T23:31:00.100Z,18.45
2019-06-10T23:36:05.157Z,19.02
2019-06-10T23:41:10.359Z,18.95
2019-06-10T23:46:15.818Z,20.30
2019-06-10T23:51:22.802Z,20.12
2019-06-10T23:56:28.031Z,19.32
